createdAt,value
2023-10-02T00:00:31.478Z,1.00
2023-10-02T00:01:34.831Z,1.00
2023-10-02T00:02:42.853Z,1.00
2023-10-02T00:03:46.647Z,1.00
2023-10-02T00:04:48.849Z,1.00
2023-10-02T00:05:53.614Z,1.00
2023-10-02T00:07:07.770Z,1.00
2023-10-02T00:08:26.592Z,1.00
2023-10-02T00:09:35.328Z,1.00
2023-10-02T00:10:37.350Z,1.00
2023-10-02T00:11:42.672Z,1.00
2023-10-02T00:12:59.680Z,1.00
2023-10-02T00:14:36.288Z,1.00
2023-10-02T00:15:38.365Z,1.00
2023-10-02T00:16:40.395Z,1.00
2023-10-02T00:17:45.811Z,1.00
2023-10-02T00:18:48.310Z,1.00
2023-10-02T00:19:53.969Z,1.00
2023-10-02T00:21:16.012Z,1.00
2023-10-02T00:22:37.661Z,1.00
2023-10-02T00:23:59.955Z,1.00
2023-10-02T00:25:09.071Z,1.00
2023-10-02T00:26:12.136Z,1.00
2023-10-02T00:27:14.649Z,1.00
2023-10-02T00:28:31.788Z,1.00
2023-10-02T00:29:34.130Z,1.00
2023-10-02T00:30:39.019Z,1.00
2023-10-02T00:31:43.962Z,1.00
2023-10-02T00:32:48.713Z,1.00
2023-10-02T00:33:52.037Z,1.00
2023-10-02T00:34:54.366Z,1.00
2023-10-02T00:35:57.932Z,1.00
2023-10-02T00:37:07.264Z,1.00
2023-10-02T00:38:09.278Z,1.00
2023-10-02T00:39:26.242Z,1.00
2023-10-02T00:40:30.301Z,1.00
2023-10-02T00:41:33.742Z,1.00
2023-10-02T00:42:38.163Z,1.00
2023-10-02T00:43:46.988Z,1.00
2023-10-02T00:45:03.452Z,1.00
2023-10-02T00:46:05.476Z,1.00
2023-10-02T00:47:07.560Z,1.00
2023-10-02T00:48:29.788Z,1.00
2023-10-02T00:49:36.823Z,1.00
2023-10-02T00:50:50.462Z,1.00
2023-10-02T00:52:02.255Z,1.00
2023-10-02T00:53:07.181Z,1.00
2023-10-02T00:54:25.472Z,1.00
2023-10-02T00:55:36.775Z,1.00
2023-10-02T00:56:39.939Z,1.00
2023-10-02T00:57:42.499Z,1.00
2023-10-02T00:58:45.741Z,1.00
2023-10-02T00:59:48.009Z,1.00
2023-10-02T01:00:52.448Z,1.00
2023-10-02T01:01:54.619Z,1.00
2023-10-02T01:02:58.872Z,1.00
2023-10-02T01:04:11.221Z,1.00
2023-10-02T01:05:18.698Z,1.00
2023-10-02T01:06:23.292Z,1.00
2023-10-02T01:07:25.306Z,1.00
2023-10-02T01:08:44.671Z,1.00
2023-10-02T01:10:06.818Z,1.00
2023-10-02T01:11:08.900Z,1.00
2023-10-02T01:12:12.319Z,1.00
2023-10-02T01:13:14.368Z,1.00
2023-10-02T01:14:36.331Z,1.00
2023-10-02T01:15:49.293Z,1.00
2023-10-02T01:16:52.644Z,1.00
2023-10-02T01:17:55.581Z,1.00
2023-10-02T01:18:58.612Z,1.00
2023-10-02T01:20:10.154Z,1.00
2023-10-02T01:21:15.701Z,1.00
2023-10-02T01:22:27.442Z,1.00
2023-10-02T01:23:32.630Z,1.00
2023-10-02T01:24:34.659Z,1.00
2023-10-02T01:25:37.755Z,1.00
2023-10-02T01:26:41.965Z,1.00
2023-10-02T01:27:52.333Z,1.00
2023-10-02T01:28:56.078Z,1.00
2023-10-02T01:30:16.033Z,1.00
2023-10-02T01:31:33.682Z,1.00
2023-10-02T01:32:36.506Z,1.00
2023-10-02T01:33:39.206Z,1.00
2023-10-02T01:34:41.616Z,1.00
2023-10-02T01:35:48.130Z,1.00
2023-10-02T01:36:50.345Z,1.00
2023-10-02T01:37:54.011Z,1.00
2023-10-02T01:39:00.984Z,1.00
2023-10-02T01:40:23.222Z,1.00
2023-10-02T01:41:25.344Z,1.00
2023-10-02T01:42:28.608Z,1.00
2023-10-02T01:43:33.520Z,1.00
2023-10-02T01:44:55.491Z,1.00
2023-10-02T01:46:01.738Z,1.00
2023-10-02T01:47:05.849Z,1.00
2023-10-02T01:48:09.531Z,1.00
2023-10-02T01:49:25.736Z,1.00
2023-10-02T01:50:30.036Z,1.00
2023-10-02T01:51:33.324Z,1.00
2023-10-02T01:52:50.926Z,1.00
2023-10-02T01:54:04.632Z,1.00
2023-10-02T01:55:07.660Z,1.00
2023-10-02T01:56:13.450Z,1.00
2023-10-02T01:57:26.073Z,1.00
2023-10-02T01:58:29.073Z,1.00
2023-10-02T01:59:31.101Z,1.00
2023-10-02T02:00:36.358Z,1.00
2023-10-02T02:01:48.403Z,1.00
2023-10-02T02:03:10.650Z,1.00
2023-10-02T02:04:12.814Z,1.00
2023-10-02T02:05:15.919Z,1.00
2023-10-02T02:06:22.213Z,1.00
2023-10-02T02:07:24.174Z,1.00
2023-10-02T02:08:26.239Z,1.00
2023-10-02T02:09:32.456Z,1.00
2023-10-02T02:10:34.757Z,1.00
2023-10-02T02:11:37.077Z,1.00
2023-10-02T02:12:59.105Z,1.00
2023-10-02T02:14:03.761Z,1.00
2023-10-02T02:15:07.519Z,1.00
2023-10-02T02:16:16.306Z,1.00
2023-10-02T02:17:25.901Z,1.00
2023-10-02T02:18:28.851Z,1.00
2023-10-02T02:19:32.066Z,1.00
2023-10-02T02:20:46.263Z,1.00
2023-10-02T02:21:48.250Z,1.00
2023-10-02T02:22:50.319Z,1.00
2023-10-02T02:24:04.594Z,1.00
2023-10-02T02:25:06.985Z,1.00
2023-10-02T02:26:12.033Z,1.00
2023-10-02T02:27:15.224Z,1.00
2023-10-02T02:28:17.512Z,1.00
2023-10-02T02:29:26.173Z,1.00
2023-10-02T02:30:28.267Z,1.00
2023-10-02T02:31:30.828Z,1.00
2023-10-02T02:32:45.409Z,1.00
2023-10-02T02:33:53.271Z,1.00
2023-10-02T02:35:02.620Z,1.00
2023-10-02T02:36:07.676Z,1.00
2023-10-02T02:37:10.132Z,1.00
2023-10-02T02:38:17.705Z,1.00
2023-10-02T02:39:23.579Z,1.00
2023-10-02T02:40:30.124Z,1.00
2023-10-02T02:41:32.200Z,1.00
2023-10-02T02:42:34.240Z,1.00
2023-10-02T02:43:39.926Z,1.00
2023-10-02T02:44:44.792Z,1.00
2023-10-02T02:45:47.257Z,1.00
2023-10-02T02:46:55.340Z,1.00
2023-10-02T02:48:07.796Z,1.00
2023-10-02T02:49:12.335Z,1.00
2023-10-02T02:50:16.184Z,1.00
2023-10-02T02:51:23.091Z,1.00
2023-10-02T02:52:34.070Z,1.00
2023-10-02T02:53:36.295Z,1.00
2023-10-02T02:54:45.683Z,1.00
2023-10-02T02:56:11.430Z,1.00
2023-10-02T02:57:13.993Z,1.00
2023-10-02T02:58:15.990Z,1.00
2023-10-02T02:59:19.581Z,1.00
2023-10-02T03:00:36.863Z,1.00
2023-10-02T03:01:39.138Z,1.00
2023-10-02T03:02:43.036Z,1.00
2023-10-02T03:03:45.681Z,1.00
2023-10-02T03:04:49.036Z,1.00
2023-10-02T03:05:54.154Z,1.00
2023-10-02T03:07:10.110Z,1.00
2023-10-02T03:08:14.838Z,1.00
2023-10-02T03:09:24.889Z,1.00
2023-10-02T03:10:27.551Z,1.00
2023-10-02T03:11:30.665Z,1.00
2023-10-02T03:12:32.822Z,1.00
2023-10-02T03:13:35.871Z,1.00
2023-10-02T03:14:37.993Z,1.00
2023-10-02T03:15:48.828Z,1.00
2023-10-02T03:16:52.817Z,1.00
2023-10-02T03:18:00.360Z,1.00
2023-10-02T03:19:04.928Z,1.00
2023-10-02T03:20:23.106Z,1.00
2023-10-02T03:21:25.839Z,1.00
2023-10-02T03:22:29.368Z,1.00
2023-10-02T03:23:32.174Z,1.00
2023-10-02T03:24:35.066Z,1.00
2023-10-02T03:25:47.157Z,1.00
2023-10-02T03:26:54.386Z,1.00
2023-10-02T03:27:58.763Z,1.00
2023-10-02T03:29:04.501Z,1.00
2023-10-02T03:30:07.674Z,1.00
2023-10-02T03:31:18.356Z,1.00
2023-10-02T03:32:21.682Z,1.00
2023-10-02T03:33:23.889Z,1.00
2023-10-02T03:34:36.057Z,1.00
2023-10-02T03:35:41.522Z,1.00
2023-10-02T03:36:44.057Z,1.00
2023-10-02T03:37:52.956Z,1.00
2023-10-02T03:38:58.566Z,1.00
2023-10-02T03:40:01.547Z,1.00
2023-10-02T03:41:04.984Z,1.00
2023-10-02T03:42:12.886Z,1.00
2023-10-02T03:43:30.484Z,1.00
2023-10-02T03:44:34.725Z,1.00
2023-10-02T03:45:40.432Z,1.00
2023-10-02T03:46:43.497Z,1.00
2023-10-02T03:47:45.681Z,1.00
2023-10-02T03:48:52.908Z,1.00
2023-10-02T03:50:02.510Z,1.00
2023-10-02T03:51:05.633Z,1.00
2023-10-02T03:52:07.884Z,1.00
2023-10-02T03:53:30.152Z,1.00
2023-10-02T03:54:33.082Z,1.00
2023-10-02T03:55:35.132Z,1.00
2023-10-02T03:56:44.162Z,1.00
2023-10-02T03:57:49.108Z,1.00
2023-10-02T03:58:53.568Z,1.00
2023-10-02T03:59:55.640Z,1.00
2023-10-02T04:00:58.460Z,1.00
2023-10-02T04:02:19.395Z,1.00
2023-10-02T04:03:21.599Z,1.00
2023-10-02T04:04:24.721Z,1.00
2023-10-02T04:05:45.033Z,1.00
2023-10-02T04:06:48.565Z,1.00
2023-10-02T04:07:50.698Z,1.00
2023-10-02T04:09:07.286Z,1.00
2023-10-02T04:10:09.866Z,1.00
2023-10-02T04:11:13.604Z,1.00
2023-10-02T04:12:18.835Z,1.00
2023-10-02T04:13:24.623Z,1.00
2023-10-02T04:14:39.917Z,1.00
2023-10-02T04:15:45.218Z,1.00
2023-10-02T04:16:53.124Z,1.00
2023-10-02T04:17:55.276Z,1.00
2023-10-02T04:19:02.090Z,1.00
2023-10-02T04:20:07.038Z,1.00
2023-10-02T04:21:13.538Z,1.00
2023-10-02T04:22:23.924Z,1.00
2023-10-02T04:23:27.167Z,1.00
2023-10-02T04:24:29.158Z,1.00
2023-10-02T04:25:36.635Z,1.00
2023-10-02T04:26:43.206Z,1.00
2023-10-02T04:27:45.557Z,1.00
2023-10-02T04:28:56.732Z,1.00
2023-10-02T04:30:07.867Z,1.00
2023-10-02T04:31:10.340Z,1.00
2023-10-02T04:32:13.821Z,1.00
2023-10-02T04:33:15.924Z,1.00
2023-10-02T04:34:31.000Z,1.00
2023-10-02T04:35:46.002Z,1.00
2023-10-02T04:36:48.051Z,1.00
2023-10-02T04:37:50.070Z,1.00
2023-10-02T04:38:56.787Z,1.00
2023-10-02T04:39:58.882Z,1.00
2023-10-02T04:41:05.100Z,1.00
2023-10-02T04:42:25.551Z,1.00
2023-10-02T04:43:27.569Z,1.00
2023-10-02T04:44:29.545Z,1.00
2023-10-02T04:45:37.765Z,1.00
2023-10-02T04:46:47.087Z,1.00
2023-10-02T04:47:56.301Z,1.00
2023-10-02T04:49:01.445Z,1.00
2023-10-02T04:50:05.800Z,1.00
2023-10-02T04:51:13.545Z,1.00
2023-10-02T04:52:15.636Z,1.00
2023-10-02T04:53:17.715Z,1.00
2023-10-02T04:54:19.792Z,1.00
2023-10-02T04:55:44.447Z,1.00
2023-10-02T04:56:47.883Z,1.00
2023-10-02T04:57:51.676Z,1.00
2023-10-02T04:58:58.905Z,1.00
2023-10-02T05:00:02.456Z,1.00
2023-10-02T05:01:05.234Z,1.00
2023-10-02T05:02:22.699Z,1.00
2023-10-02T05:03:27.426Z,1.00
2023-10-02T05:04:32.425Z,1.00
2023-10-02T05:05:37.894Z,1.00
2023-10-02T05:06:46.298Z,1.00
2023-10-02T05:07:54.178Z,1.00
2023-10-02T05:08:56.299Z,1.00
2023-10-02T05:09:58.313Z,1.00
2023-10-02T05:11:09.492Z,1.00
2023-10-02T05:12:24.065Z,1.00
2023-10-02T05:13:44.496Z,1.00
2023-10-02T05:14:53.155Z,1.00
2023-10-02T05:16:08.333Z,1.00
2023-10-02T05:17:20.294Z,1.00
2023-10-02T05:18:23.913Z,1.00
2023-10-02T05:19:46.135Z,1.00
2023-10-02T05:20:49.104Z,1.00
2023-10-02T05:21:51.809Z,1.00
2023-10-02T05:23:00.533Z,1.00
2023-10-02T05:24:05.788Z,1.00
2023-10-02T05:25:08.637Z,1.00
2023-10-02T05:26:30.825Z,1.00
2023-10-02T05:27:39.750Z,1.00
2023-10-02T05:28:44.754Z,1.00
2023-10-02T05:29:47.252Z,1.00
2023-10-02T05:30:49.766Z,1.00
2023-10-02T05:31:51.916Z,1.00
2023-10-02T05:32:57.783Z,1.00
2023-10-02T05:33:59.989Z,1.00
2023-10-02T05:35:14.329Z,1.00
2023-10-02T05:36:22.817Z,1.00
2023-10-02T05:37:24.972Z,1.00
2023-10-02T05:38:30.082Z,1.00
2023-10-02T05:39:35.240Z,1.00
2023-10-02T05:40:40.463Z,1.00
2023-10-02T05:41:46.426Z,1.00
2023-10-02T05:43:01.019Z,1.00
2023-10-02T05:44:03.284Z,1.00
2023-10-02T05:45:08.709Z,1.00
2023-10-02T05:46:18.499Z,1.00
2023-10-02T05:47:22.985Z,1.00
2023-10-02T05:48:28.018Z,1.00
2023-10-02T05:49:31.485Z,1.00
2023-10-02T05:50:34.584Z,1.00
2023-10-02T05:51:49.237Z,1.00
2023-10-02T05:52:52.438Z,1.00
2023-10-02T05:53:55.196Z,1.00
2023-10-02T05:54:57.792Z,1.00
2023-10-02T05:56:12.296Z,1.00
2023-10-02T05:57:18.658Z,1.00
2023-10-02T05:58:32.704Z,1.00
2023-10-02T05:59:45.385Z,1.00
2023-10-02T06:00:53.221Z,1.00
2023-10-02T06:01:56.481Z,1.00
2023-10-02T06:03:02.724Z,1.00
2023-10-02T06:04:07.861Z,1.00
2023-10-02T06:05:13.741Z,1.00
2023-10-02T06:06:27.399Z,1.00
2023-10-02T06:08:01.772Z,1.00
2023-10-02T06:09:05.098Z,1.00
2023-10-02T06:10:10.796Z,1.00
2023-10-02T06:11:36.147Z,1.00
2023-10-02T06:12:45.075Z,1.00
2023-10-02T06:13:47.430Z,1.00
2023-10-02T06:14:50.921Z,1.00
2023-10-02T06:15:57.194Z,1.00
2023-10-02T06:17:00.254Z,1.00
2023-10-02T06:18:03.532Z,1.00
2023-10-02T06:19:08.409Z,1.00
2023-10-02T06:20:19.537Z,1.00
2023-10-02T06:21:22.096Z,1.00
2023-10-02T06:22:24.558Z,1.00
2023-10-02T06:23:31.498Z,1.00
2023-10-02T06:24:33.865Z,1.00
2023-10-02T06:25:39.831Z,1.00
2023-10-02T06:27:00.418Z,1.00
2023-10-02T06:28:22.819Z,1.00
2023-10-02T06:29:46.446Z,1.00
2023-10-02T06:30:49.619Z,1.00
2023-10-02T06:32:06.773Z,1.00
2023-10-02T06:33:09.836Z,1.00
2023-10-02T06:34:15.388Z,1.00
2023-10-02T06:35:19.959Z,1.00
2023-10-02T06:36:23.409Z,1.00
2023-10-02T06:37:38.013Z,1.00
2023-10-02T06:38:42.348Z,1.00
2023-10-02T06:40:18.128Z,1.00
2023-10-02T06:41:20.844Z,1.00
2023-10-02T06:42:43.127Z,1.00
2023-10-02T06:43:45.390Z,1.00
2023-10-02T06:44:55.207Z,1.00
2023-10-02T06:46:10.757Z,1.00
2023-10-02T06:47:14.814Z,1.00
2023-10-02T06:48:22.064Z,1.00
2023-10-02T06:49:24.721Z,1.00
2023-10-02T06:50:32.253Z,1.00
2023-10-02T06:51:34.914Z,1.00
2023-10-02T06:52:38.681Z,1.00
2023-10-02T06:53:44.815Z,1.00
2023-10-02T06:54:50.437Z,1.00
2023-10-02T06:56:00.570Z,1.00
2023-10-02T06:57:13.158Z,1.00
2023-10-02T06:58:16.490Z,1.00
2023-10-02T06:59:21.508Z,1.00
2023-10-02T07:00:25.352Z,1.00
2023-10-02T07:01:31.590Z,1.00
2023-10-02T07:02:34.278Z,1.00
2023-10-02T07:03:41.012Z,1.00
2023-10-02T07:04:45.973Z,1.00
2023-10-02T07:05:49.609Z,1.00
2023-10-02T07:06:51.933Z,1.00
2023-10-02T07:08:00.912Z,1.00
2023-10-02T07:09:12.761Z,1.00
2023-10-02T07:10:15.285Z,1.00
2023-10-02T07:11:20.587Z,1.00
2023-10-02T07:12:23.752Z,1.00
2023-10-02T07:13:26.017Z,1.00
2023-10-02T07:14:36.743Z,1.00
2023-10-02T07:15:38.963Z,1.00
2023-10-02T07:16:44.317Z,1.00
2023-10-02T07:17:50.404Z,1.00
2023-10-02T07:18:55.065Z,1.00
2023-10-02T07:20:02.364Z,1.00
2023-10-02T07:21:10.814Z,1.00
2023-10-02T07:22:18.083Z,1.00
2023-10-02T07:23:23.808Z,1.00
2023-10-02T07:24:30.159Z,1.00
2023-10-02T07:25:32.377Z,1.00
2023-10-02T07:26:50.897Z,1.00
2023-10-02T07:27:53.117Z,1.00
2023-10-02T07:28:55.207Z,1.00
2023-10-02T07:29:58.831Z,1.00
2023-10-02T07:31:01.096Z,1.00
2023-10-02T07:32:03.216Z,1.00
2023-10-02T07:33:05.897Z,1.00
2023-10-02T07:34:09.500Z,1.00
2023-10-02T07:35:18.570Z,1.00
2023-10-02T07:36:20.585Z,1.00
2023-10-02T07:37:23.617Z,1.00
2023-10-02T07:38:31.785Z,1.00
2023-10-02T07:39:36.805Z,1.00
2023-10-02T07:40:48.301Z,1.00
2023-10-02T07:42:01.437Z,1.00
2023-10-02T07:43:05.466Z,1.00
2023-10-02T07:44:10.113Z,1.00
2023-10-02T07:45:31.966Z,1.00
2023-10-02T07:46:34.445Z,1.00
2023-10-02T07:47:40.769Z,1.00
2023-10-02T07:48:42.926Z,1.00
2023-10-02T07:50:04.428Z,1.00
2023-10-02T07:51:12.267Z,1.00
2023-10-02T07:52:28.133Z,1.00
2023-10-02T07:53:42.192Z,1.00
2023-10-02T07:54:47.247Z,1.00
2023-10-02T07:55:49.384Z,1.00
2023-10-02T07:56:51.546Z,1.00
2023-10-02T07:57:59.498Z,1.00
2023-10-02T07:59:03.122Z,1.00
2023-10-02T08:00:27.791Z,1.00
2023-10-02T08:01:30.015Z,1.00
2023-10-02T08:02:35.067Z,1.00
2023-10-02T08:03:44.684Z,1.00
2023-10-02T08:04:48.997Z,1.00
2023-10-02T08:05:51.240Z,1.50
2023-10-02T08:07:09.575Z,2.00
2023-10-02T08:08:17.986Z,2.00
2023-10-02T08:09:38.582Z,2.00
2023-10-02T08:10:54.704Z,2.00
2023-10-02T08:11:57.947Z,2.00
2023-10-02T08:13:06.606Z,2.00
2023-10-02T08:14:16.776Z,2.00
2023-10-02T08:15:28.268Z,2.00
2023-10-02T08:16:34.442Z,2.00
2023-10-02T08:17:42.660Z,2.83
2023-10-02T08:18:59.591Z,3.00
2023-10-02T08:20:17.446Z,3.00
2023-10-02T08:21:24.878Z,3.00
2023-10-02T08:22:45.752Z,3.00
2023-10-02T08:23:54.074Z,3.00
2023-10-02T08:24:57.382Z,3.00
2023-10-02T08:26:19.239Z,3.00
2023-10-02T08:27:24.061Z,3.00
2023-10-02T08:28:26.086Z,3.00
2023-10-02T08:29:28.615Z,3.00
2023-10-02T08:30:34.122Z,3.00
2023-10-02T08:31:37.585Z,3.00
2023-10-02T08:32:39.827Z,3.00
2023-10-02T08:33:52.853Z,3.00
2023-10-02T08:35:15.460Z,3.00
2023-10-02T08:36:21.471Z,3.00
2023-10-02T08:37:24.691Z,3.00
2023-10-02T08:38:27.989Z,3.00
2023-10-02T08:39:30.163Z,3.00
2023-10-02T08:40:33.959Z,3.00
2023-10-02T08:41:44.965Z,3.00
2023-10-02T08:42:54.120Z,3.00
2023-10-02T08:43:56.284Z,3.00
2023-10-02T08:45:01.910Z,3.00
2023-10-02T08:46:06.626Z,3.00
2023-10-02T08:47:09.335Z,3.00
2023-10-02T08:48:13.326Z,3.00
2023-10-02T08:49:15.347Z,3.00
2023-10-02T08:50:17.781Z,3.00
2023-10-02T08:51:30.335Z,3.00
2023-10-02T08:52:48.332Z,3.00
2023-10-02T08:53:52.181Z,3.00
2023-10-02T08:54:54.182Z,3.00
2023-10-02T08:56:02.122Z,3.00
2023-10-02T08:57:08.327Z,3.00
2023-10-02T08:58:20.446Z,3.00
2023-10-02T08:59:28.677Z,3.00
2023-10-02T09:00:31.138Z,3.00
2023-10-02T09:01:35.255Z,3.00
2023-10-02T09:02:41.920Z,3.17
2023-10-02T09:04:05.052Z,4.00
2023-10-02T09:05:10.919Z,4.00
2023-10-02T09:06:29.616Z,4.00
2023-10-02T09:08:02.090Z,4.00
2023-10-02T09:09:24.009Z,4.00
2023-10-02T09:10:26.953Z,4.00
2023-10-02T09:11:35.470Z,4.00
2023-10-02T09:12:50.180Z,4.00
2023-10-02T09:14:23.366Z,4.00
2023-10-02T09:15:32.803Z,4.00
2023-10-02T09:16:36.509Z,4.00
2023-10-02T09:17:46.194Z,4.00
2023-10-02T09:19:06.844Z,4.00
2023-10-02T09:20:09.257Z,3.00
2023-10-02T09:21:17.888Z,3.00
2023-10-02T09:22:20.025Z,3.00
2023-10-02T09:23:25.209Z,3.00
2023-10-02T09:24:28.877Z,3.00
2023-10-02T09:25:38.324Z,3.00
2023-10-02T09:26:44.392Z,3.00
2023-10-02T09:27:56.167Z,3.00
2023-10-02T09:29:02.162Z,3.00
2023-10-02T09:30:20.906Z,3.00
2023-10-02T09:31:26.067Z,3.00
2023-10-02T09:32:28.284Z,3.00
2023-10-02T09:33:47.449Z,3.00
2023-10-02T09:35:36.675Z,3.00
2023-10-02T09:37:07.400Z,3.00
2023-10-02T09:38:07.589Z,3.00
2023-10-02T09:39:28.481Z,3.00
2023-10-02T09:40:52.376Z,3.00
2023-10-02T09:42:07.107Z,3.00
2023-10-02T09:43:09.145Z,3.00
2023-10-02T09:44:16.785Z,3.00
2023-10-02T09:45:32.595Z,3.00
2023-10-02T09:46:36.662Z,3.00
2023-10-02T09:47:47.736Z,3.00
2023-10-02T09:49:04.308Z,3.00
2023-10-02T09:50:28.296Z,3.00
2023-10-02T09:52:16.565Z,3.00
2023-10-02T09:53:18.803Z,2.00
2023-10-02T09:54:29.778Z,2.00
2023-10-02T09:55:43.857Z,2.00
2023-10-02T09:57:06.720Z,2.00
2023-10-02T09:58:27.827Z,2.00
2023-10-02T09:59:29.841Z,2.00
2023-10-02T10:00:38.718Z,2.00
2023-10-02T10:01:40.901Z,2.00
2023-10-02T10:02:45.833Z,2.00
2023-10-02T10:03:50.793Z,2.00
2023-10-02T10:05:14.541Z,2.83
2023-10-02T10:06:20.644Z,3.00
2023-10-02T10:07:39.414Z,3.00
2023-10-02T10:09:19.218Z,3.00
2023-10-02T10:10:49.722Z,3.00
2023-10-02T10:12:12.437Z,3.00
2023-10-02T10:13:26.417Z,2.00
2023-10-02T10:14:43.634Z,2.00
2023-10-02T10:15:49.320Z,2.00
2023-10-02T10:16:51.403Z,2.00
2023-10-02T10:17:54.548Z,2.00
2023-10-02T10:19:19.258Z,2.00
2023-10-02T10:20:21.646Z,2.00
2023-10-02T10:21:58.200Z,2.00
2023-10-02T10:23:03.269Z,2.00
2023-10-02T10:25:00.326Z,2.00
2023-10-02T10:26:08.952Z,2.00
2023-10-02T10:27:11.095Z,2.00
2023-10-02T10:28:27.129Z,2.00
2023-10-02T10:29:39.298Z,2.00
2023-10-02T10:30:45.877Z,2.00
2023-10-02T10:31:57.423Z,2.00
2023-10-02T10:33:11.897Z,2.00
2023-10-02T10:35:13.387Z,2.00
2023-10-02T10:36:34.446Z,2.00
2023-10-02T10:37:48.861Z,2.00
2023-10-02T10:38:51.991Z,2.00
2023-10-02T10:40:00.399Z,2.00
2023-10-02T10:41:16.148Z,2.00
2023-10-02T10:42:18.191Z,2.00
2023-10-02T10:43:20.238Z,2.00
2023-10-02T10:44:22.407Z,2.00
2023-10-02T10:45:25.630Z,2.00
2023-10-02T10:46:31.195Z,2.00
2023-10-02T10:47:39.824Z,2.00
2023-10-02T10:48:42.203Z,2.00
2023-10-02T10:49:55.624Z,2.00
2023-10-02T10:51:24.056Z,2.00
2023-10-02T10:52:36.579Z,2.00
2023-10-02T10:53:42.624Z,2.00
2023-10-02T10:54:50.362Z,2.00
2023-10-02T10:56:21.311Z,2.00
2023-10-02T10:57:24.620Z,2.00
2023-10-02T10:58:34.816Z,2.00
2023-10-02T10:59:37.502Z,2.00
2023-10-02T11:00:41.765Z,2.00
2023-10-02T11:02:10.257Z,2.00
2023-10-02T11:03:21.548Z,2.00
2023-10-02T11:04:28.613Z,2.00
2023-10-02T11:05:35.414Z,2.00
2023-10-02T11:06:42.886Z,2.00
2023-10-02T11:07:48.887Z,2.00
2023-10-02T11:09:19.410Z,2.00
2023-10-02T11:10:26.250Z,2.00
2023-10-02T11:11:31.994Z,2.00
2023-10-02T11:12:41.045Z,2.00
2023-10-02T11:13:53.218Z,2.00
2023-10-02T11:14:56.520Z,2.00
2023-10-02T11:16:00.437Z,2.00
2023-10-02T11:17:06.311Z,2.00
2023-10-02T11:18:21.846Z,2.00
2023-10-02T11:19:26.974Z,2.00
2023-10-02T11:20:34.932Z,2.00
2023-10-02T11:21:46.335Z,2.00
2023-10-02T11:22:50.231Z,2.00
2023-10-02T11:23:54.871Z,2.00
2023-10-02T11:25:22.443Z,2.00
2023-10-02T11:26:24.671Z,2.00
2023-10-02T11:27:30.591Z,2.00
2023-10-02T11:28:33.596Z,2.00
2023-10-02T11:29:42.716Z,2.00
2023-10-02T11:31:00.070Z,2.00
2023-10-02T11:32:20.759Z,2.00
2023-10-02T11:33:29.382Z,2.00
2023-10-02T11:34:33.846Z,2.00
2023-10-02T11:35:44.996Z,2.00
2023-10-02T11:36:54.239Z,2.00
2023-10-02T11:37:57.261Z,2.00
2023-10-02T11:38:59.583Z,2.00
2023-10-02T11:40:01.946Z,2.00
2023-10-02T11:41:05.677Z,2.00
2023-10-02T11:42:08.472Z,2.00
2023-10-02T11:43:10.578Z,2.00
2023-10-02T11:44:13.949Z,2.00
2023-10-02T11:45:16.587Z,2.00
2023-10-02T11:46:18.677Z,2.00
2023-10-02T11:47:20.772Z,1.17
2023-10-02T11:48:27.144Z,1.00
2023-10-02T11:49:30.836Z,1.00
2023-10-02T11:50:32.894Z,1.00
2023-10-02T11:51:35.017Z,1.00
2023-10-02T11:52:37.122Z,1.00
2023-10-02T11:53:39.235Z,1.00
2023-10-02T11:54:41.276Z,1.00
2023-10-02T11:55:43.250Z,1.00
2023-10-02T11:56:48.158Z,1.00
2023-10-02T11:57:52.870Z,1.00
2023-10-02T11:58:55.136Z,1.00
2023-10-02T11:59:57.131Z,1.00
2023-10-02T12:01:05.743Z,1.00
2023-10-02T12:02:12.156Z,1.00
2023-10-02T12:03:15.564Z,1.00
2023-10-02T12:04:17.753Z,1.00
2023-10-02T12:05:20.137Z,1.00
2023-10-02T12:06:23.058Z,1.00
2023-10-02T12:07:25.096Z,1.00
2023-10-02T12:08:27.170Z,1.00
2023-10-02T12:09:29.340Z,1.00
2023-10-02T12:10:31.997Z,1.00
2023-10-02T12:11:35.455Z,1.00
2023-10-02T12:12:37.535Z,1.00
2023-10-02T12:13:39.556Z,1.00
2023-10-02T12:14:41.596Z,1.00
2023-10-02T12:15:47.455Z,1.00
2023-10-02T12:16:49.484Z,1.00
2023-10-02T12:17:51.552Z,1.00
2023-10-02T12:18:53.900Z,1.00
2023-10-02T12:19:56.201Z,1.00
2023-10-02T12:20:58.207Z,1.00
2023-10-02T12:22:08.700Z,1.00
2023-10-02T12:23:11.708Z,1.00
2023-10-02T12:24:16.092Z,1.00
2023-10-02T12:25:18.073Z,1.00
2023-10-02T12:26:28.566Z,1.00
2023-10-02T12:27:31.673Z,1.00
2023-10-02T12:28:33.647Z,1.00
2023-10-02T12:29:35.685Z,1.00
2023-10-02T12:30:37.751Z,1.00
2023-10-02T12:31:40.083Z,1.00
2023-10-02T12:32:43.363Z,1.00
2023-10-02T12:33:46.263Z,1.00
2023-10-02T12:34:48.372Z,1.00
2023-10-02T12:35:50.409Z,1.00
2023-10-02T12:36:55.086Z,1.00
2023-10-02T12:37:57.141Z,1.00
2023-10-02T12:38:59.313Z,1.00
2023-10-02T12:40:01.406Z,1.00
2023-10-02T12:41:03.459Z,1.00
2023-10-02T12:42:06.397Z,1.00
2023-10-02T12:43:10.202Z,1.00
2023-10-02T12:44:12.343Z,1.00
2023-10-02T12:45:15.304Z,1.00
2023-10-02T12:46:17.460Z,1.00
2023-10-02T12:47:19.564Z,1.00
2023-10-02T12:48:21.609Z,1.00
2023-10-02T12:49:23.623Z,1.00
2023-10-02T12:50:25.750Z,1.00
2023-10-02T12:51:29.135Z,1.00
2023-10-02T12:52:34.059Z,1.00
2023-10-02T12:53:37.405Z,1.00
2023-10-02T12:54:39.407Z,1.00
2023-10-02T12:55:44.601Z,1.00
2023-10-02T12:56:47.421Z,1.00
2023-10-02T12:57:50.095Z,1.00
2023-10-02T12:58:53.589Z,1.00
2023-10-02T12:59:55.609Z,1.00
2023-10-02T13:00:57.650Z,1.00
2023-10-02T13:01:59.718Z,1.00
2023-10-02T13:03:01.839Z,1.00
2023-10-02T13:04:03.938Z,1.00
2023-10-02T13:05:06.947Z,1.00
2023-10-02T13:06:13.327Z,1.00
2023-10-02T13:07:15.578Z,1.00
2023-10-02T13:08:17.631Z,1.00
2023-10-02T13:09:20.385Z,1.00
2023-10-02T13:10:24.258Z,1.00
2023-10-02T13:11:26.366Z,1.00
2023-10-02T13:12:28.459Z,1.00
2023-10-02T13:13:30.430Z,1.00
2023-10-02T13:14:32.645Z,1.00
2023-10-02T13:15:35.848Z,1.00
2023-10-02T13:16:38.818Z,1.00
2023-10-02T13:17:40.887Z,1.00
2023-10-02T13:18:45.115Z,1.00
2023-10-02T13:19:47.096Z,1.00
2023-10-02T13:20:55.358Z,1.00
2023-10-02T13:21:59.356Z,1.00
2023-10-02T13:23:03.025Z,1.00
2023-10-02T13:24:07.307Z,1.00
2023-10-02T13:25:13.255Z,1.00
2023-10-02T13:26:17.682Z,1.00
2023-10-02T13:27:19.913Z,1.00
2023-10-02T13:28:22.145Z,1.00
2023-10-02T13:29:25.652Z,1.00
2023-10-02T13:30:27.872Z,1.00
2023-10-02T13:31:29.884Z,1.00
2023-10-02T13:32:31.934Z,1.00
2023-10-02T13:33:33.989Z,1.00
2023-10-02T13:34:35.960Z,1.00
2023-10-02T13:35:41.414Z,1.00
2023-10-02T13:36:43.488Z,1.00
2023-10-02T13:37:45.530Z,1.00
2023-10-02T13:38:47.576Z,1.00
2023-10-02T13:39:49.586Z,1.00
2023-10-02T13:40:51.592Z,1.00
2023-10-02T13:41:54.028Z,1.00
2023-10-02T13:42:57.633Z,1.00
2023-10-02T13:44:01.243Z,1.00
2023-10-02T13:45:03.382Z,1.00
2023-10-02T13:46:16.046Z,1.00
2023-10-02T13:47:27.088Z,1.00
2023-10-02T13:48:39.446Z,1.00
2023-10-02T13:49:41.547Z,1.00
2023-10-02T13:50:57.087Z,1.00
2023-10-02T13:52:05.304Z,1.00
2023-10-02T13:53:07.649Z,1.00
2023-10-02T13:54:10.744Z,1.00
2023-10-02T13:55:23.738Z,1.00
2023-10-02T13:56:34.559Z,1.00
2023-10-02T13:57:36.908Z,1.00
2023-10-02T13:58:42.595Z,1.00
2023-10-02T13:59:44.850Z,1.00
2023-10-02T14:00:46.953Z,1.00
2023-10-02T14:01:49.920Z,1.00
2023-10-02T14:02:56.202Z,1.00
2023-10-02T14:03:58.257Z,1.00
2023-10-02T14:05:02.461Z,1.00
2023-10-02T14:06:09.137Z,1.00
2023-10-02T14:07:11.182Z,1.00
2023-10-02T14:08:13.390Z,1.00
2023-10-02T14:09:15.406Z,1.00
2023-10-02T14:10:17.793Z,1.00
2023-10-02T14:11:22.307Z,1.00
2023-10-02T14:12:27.937Z,1.00
2023-10-02T14:13:30.473Z,1.00
2023-10-02T14:14:32.766Z,1.00
2023-10-02T14:15:36.829Z,1.00
2023-10-02T14:16:42.256Z,1.00
2023-10-02T14:17:48.795Z,1.00
2023-10-02T14:18:53.546Z,1.00
2023-10-02T14:19:57.283Z,1.00
2023-10-02T14:21:01.210Z,1.00
2023-10-02T14:22:03.249Z,1.00
2023-10-02T14:23:06.995Z,1.00
2023-10-02T14:24:10.888Z,1.00
2023-10-02T14:25:13.480Z,1.00
2023-10-02T14:26:16.825Z,1.00
2023-10-02T14:27:18.848Z,1.00
2023-10-02T14:28:21.311Z,1.00
2023-10-02T14:29:24.442Z,1.00
2023-10-02T14:30:26.520Z,1.00
2023-10-02T14:31:32.743Z,1.00
2023-10-02T14:32:35.133Z,1.00
2023-10-02T14:33:37.335Z,1.00
2023-10-02T14:34:39.420Z,1.00
2023-10-02T14:35:53.397Z,1.00
2023-10-02T14:36:56.236Z,1.00
2023-10-02T14:37:58.236Z,1.00
2023-10-02T14:39:00.488Z,1.00
2023-10-02T14:40:03.631Z,1.00
2023-10-02T14:41:09.230Z,1.00
2023-10-02T14:42:13.214Z,1.00
2023-10-02T14:43:15.747Z,1.00
2023-10-02T14:44:17.734Z,1.00
2023-10-02T14:45:19.778Z,1.00
2023-10-02T14:46:22.849Z,1.00
2023-10-02T14:47:25.253Z,1.00
2023-10-02T14:48:45.006Z,1.00
2023-10-02T14:49:48.516Z,1.00
2023-10-02T14:50:50.645Z,1.00
2023-10-02T14:51:52.673Z,1.00
2023-10-02T14:52:56.823Z,1.00
2023-10-02T14:53:58.884Z,1.00
2023-10-02T14:55:00.869Z,1.00
2023-10-02T14:56:06.249Z,1.00